createdAt,value
2016-11-01T00:00:49.398Z,930.88
2016-11-01T00:02:03.054Z,930.86
2016-11-01T00:03:16.725Z,930.87
2016-11-01T00:04:30.448Z,930.84
2016-11-01T00:05:44.067Z,930.88
2016-11-01T00:06:57.660Z,930.96
2016-11-01T00:08:10.773Z,930.94
2016-11-01T00:09:24.432Z,930.98
2016-11-01T00:10:38.045Z,930.98
2016-11-01T00:11:51.754Z,931.01
2016-11-01T00:13:05.419Z,931.02
2016-11-01T00:14:18.524Z,931.03
2016-11-01T00:15:31.703Z,931.04
2016-11-01T00:16:44.982Z,931.05
2016-11-01T00:17:58.052Z,931.07
2016-11-01T00:19:10.937Z,931.09
2016-11-01T00:20:23.746Z,931.09
2016-11-01T00:21:36.891Z,931.14
2016-11-01T00:22:50.569Z,931.17
2016-11-01T00:24:03.683Z,931.16
2016-11-01T00:25:16.887Z,931.13
2016-11-01T00:26:30.743Z,931.18
2016-11-01T00:27:43.945Z,931.14
2016-11-01T00:28:57.080Z,931.16
2016-11-01T00:30:10.712Z,931.19
2016-11-01T00:31:24.425Z,931.19
2016-11-01T00:32:36.977Z,931.21
2016-11-01T00:33:49.845Z,931.23
2016-11-01T00:35:03.443Z,931.29
2016-11-01T00:36:16.590Z,931.3
2016-11-01T00:37:29.713Z,931.32
2016-11-01T00:38:43.380Z,931.35
2016-11-01T00:39:56.411Z,931.35
2016-11-01T00:41:10.163Z,931.3
2016-11-01T00:42:23.833Z,931.33
2016-11-01T00:43:37.451Z,931.32
2016-11-01T00:44:50.029Z,931.3
2016-11-01T00:46:03.717Z,931.35
2016-11-01T00:47:17.375Z,931.36
2016-11-01T00:48:29.989Z,931.33
2016-11-01T00:49:43.611Z,931.35
2016-11-01T00:50:57.005Z,931.34
2016-11-01T00:52:10.159Z,931.34
2016-11-01T00:53:23.826Z,931.31
2016-11-01T00:54:37.449Z,931.26
2016-11-01T00:55:50.003Z,931.24
2016-11-01T00:57:03.678Z,931.19
2016-11-01T00:58:17.240Z,931.19
2016-11-01T00:59:30.921Z,931.16
2016-11-01T01:00:44.012Z,931.17
2016-11-01T01:01:57.723Z,931.11
2016-11-01T01:03:10.825Z,931.11
2016-11-01T01:04:23.936Z,931.09
2016-11-01T01:05:37.012Z,931.11
2016-11-01T01:06:50.233Z,931.1
2016-11-01T01:08:03.894Z,931.08
2016-11-01T01:09:17.480Z,931.11
2016-11-01T01:10:31.113Z,931.09
2016-11-01T01:11:44.702Z,931.1
2016-11-01T01:12:58.352Z,931.09
2016-11-01T01:14:12.239Z,931.11
2016-11-01T01:15:25.405Z,931.1
2016-11-01T01:16:39.161Z,931.05
2016-11-01T01:17:52.760Z,931.03
2016-11-01T01:19:06.096Z,931.02
2016-11-01T01:20:19.483Z,931.02
2016-11-01T01:21:32.614Z,931.03
2016-11-01T01:22:45.712Z,931.04
2016-11-01T01:23:58.815Z,931
2016-11-01T01:25:12.439Z,931.02
2016-11-01T01:26:26.049Z,930.99
2016-11-01T01:27:39.252Z,931.01
2016-11-01T01:28:52.326Z,931.05
2016-11-01T01:30:05.440Z,931.1
2016-11-01T01:31:19.084Z,931.09
2016-11-01T01:32:32.717Z,931.15
2016-11-01T01:33:46.490Z,931.15
2016-11-01T01:34:59.627Z,931.18
2016-11-01T01:36:13.259Z,931.2
2016-11-01T01:37:25.773Z,931.19
2016-11-01T01:38:39.445Z,931.23
2016-11-01T01:39:53.114Z,931.25
2016-11-01T01:41:06.728Z,931.24
2016-11-01T01:42:20.333Z,931.26
2016-11-01T01:43:33.725Z,931.24
2016-11-01T01:44:47.324Z,931.24
2016-11-01T01:46:01.023Z,931.19
2016-11-01T01:47:14.944Z,931.16
2016-11-01T01:48:28.575Z,931.15
2016-11-01T01:49:42.267Z,931.12
2016-11-01T01:50:55.886Z,931.11
2016-11-01T01:52:09.508Z,931.16
2016-11-01T01:53:23.136Z,931.15
2016-11-01T01:54:35.715Z,931.19
2016-11-01T01:55:49.362Z,931.21
2016-11-01T01:57:03.039Z,931.2
2016-11-01T01:58:16.652Z,931.18
2016-11-01T01:59:29.757Z,931.15
2016-11-01T02:00:42.904Z,931.12
2016-11-01T02:01:56.632Z,931.11
2016-11-01T02:03:10.311Z,931.11
2016-11-01T02:04:23.438Z,931.12
2016-11-01T02:05:37.050Z,931.11
2016-11-01T02:06:50.649Z,931.18
2016-11-01T02:08:03.789Z,931.18
2016-11-01T02:09:16.651Z,931.14
2016-11-01T02:10:30.305Z,931.08
2016-11-01T02:11:43.357Z,931.07
2016-11-01T02:12:57.022Z,931.08
2016-11-01T02:14:10.068Z,931.09
2016-11-01T02:15:23.768Z,931.04
2016-11-01T02:16:36.860Z,931.03
2016-11-01T02:17:49.931Z,931.03
2016-11-01T02:19:03.564Z,931.03
2016-11-01T02:20:17.200Z,930.98
2016-11-01T02:21:30.863Z,930.96
2016-11-01T02:22:44.544Z,930.99
2016-11-01T02:23:58.190Z,930.94
2016-11-01T02:25:12.133Z,930.95
2016-11-01T02:26:25.903Z,930.95
2016-11-01T02:27:39.565Z,930.9
2016-11-01T02:28:52.760Z,930.92
2016-11-01T02:30:05.994Z,930.92
2016-11-01T02:31:19.673Z,930.9
2016-11-01T02:32:33.272Z,930.9
2016-11-01T02:33:46.863Z,930.88
2016-11-01T02:35:00.412Z,930.89
2016-11-01T02:36:13.507Z,930.87
2016-11-01T02:37:27.178Z,930.84
2016-11-01T02:38:40.970Z,930.87
2016-11-01T02:39:54.633Z,930.86
2016-11-01T02:41:08.079Z,930.84
2016-11-01T02:42:21.742Z,930.84
2016-11-01T02:43:35.110Z,930.88
2016-11-01T02:44:48.016Z,930.92
2016-11-01T02:46:01.640Z,930.87
2016-11-01T02:47:15.259Z,930.87
2016-11-01T02:48:28.895Z,930.9
2016-11-01T02:49:42.235Z,930.9
2016-11-01T02:50:55.912Z,930.9
2016-11-01T02:52:09.532Z,930.87
2016-11-01T02:53:22.354Z,930.85
2016-11-01T02:54:35.996Z,930.8
2016-11-01T02:55:49.632Z,930.82
2016-11-01T02:57:02.986Z,930.83
2016-11-01T02:58:16.307Z,930.81
2016-11-01T02:59:29.884Z,930.81
2016-11-01T03:00:43.552Z,930.77
2016-11-01T03:01:57.245Z,930.74
2016-11-01T03:03:10.965Z,930.76
2016-11-01T03:04:24.553Z,930.75
2016-11-01T03:05:38.209Z,930.72
2016-11-01T03:06:51.786Z,930.71
2016-11-01T03:08:05.456Z,930.67
2016-11-01T03:09:19.145Z,930.67
2016-11-01T03:10:32.246Z,930.69
2016-11-01T03:11:45.331Z,930.7
2016-11-01T03:12:59.010Z,930.69
2016-11-01T03:14:12.671Z,930.69
2016-11-01T03:15:26.347Z,930.65
2016-11-01T03:16:40.059Z,930.63
2016-11-01T03:17:53.134Z,930.62
2016-11-01T03:19:06.819Z,930.62
2016-11-01T03:20:20.489Z,930.57
2016-11-01T03:21:34.151Z,930.59
2016-11-01T03:22:47.806Z,930.57
2016-11-01T03:24:01.435Z,930.57
2016-11-01T03:25:15.029Z,930.57
2016-11-01T03:26:28.712Z,930.54
2016-11-01T03:27:42.420Z,930.49
2016-11-01T03:28:56.107Z,930.49
2016-11-01T03:30:09.748Z,930.5
2016-11-01T03:31:23.403Z,930.5
2016-11-01T03:32:37.073Z,930.52
2016-11-01T03:33:50.751Z,930.54
2016-11-01T03:35:04.418Z,930.51
2016-11-01T03:36:18.362Z,930.52
2016-11-01T03:37:31.521Z,930.5
2016-11-01T03:38:45.300Z,930.45
2016-11-01T03:39:59.024Z,930.44
2016-11-01T03:41:12.669Z,930.36
2016-11-01T03:42:26.333Z,930.35
2016-11-01T03:43:39.923Z,930.36
2016-11-01T03:44:53.478Z,930.36
2016-11-01T03:46:07.142Z,930.41
2016-11-01T03:47:20.824Z,930.43
2016-11-01T03:48:33.907Z,930.33
2016-11-01T03:49:46.994Z,930.33
2016-11-01T03:51:00.629Z,930.27
2016-11-01T03:52:14.278Z,930.27
2016-11-01T03:53:27.663Z,930.31
2016-11-01T03:54:41.320Z,930.24
2016-11-01T03:55:54.948Z,930.21
2016-11-01T03:57:08.600Z,930.24
2016-11-01T03:58:22.268Z,930.24
2016-11-01T03:59:35.957Z,930.23
2016-11-01T04:00:49.616Z,930.19
2016-11-01T04:02:03.290Z,930.2
2016-11-01T04:03:16.946Z,930.18
2016-11-01T04:04:30.318Z,930.19
2016-11-01T04:05:43.997Z,930.2
2016-11-01T04:06:57.576Z,930.16
2016-11-01T04:08:11.224Z,930.17
2016-11-01T04:09:24.966Z,930.15
2016-11-01T04:10:38.670Z,930.11
2016-11-01T04:11:52.365Z,930.05
2016-11-01T04:13:06.003Z,930.07
2016-11-01T04:14:19.243Z,930.06
2016-11-01T04:15:32.950Z,929.98
2016-11-01T04:16:46.626Z,929.96
2016-11-01T04:18:00.307Z,929.97
2016-11-01T04:19:13.881Z,929.92
2016-11-01T04:20:27.527Z,929.9
2016-11-01T04:21:41.182Z,929.86
2016-11-01T04:22:54.805Z,929.85
2016-11-01T04:24:08.489Z,929.85
2016-11-01T04:25:22.054Z,929.81
2016-11-01T04:26:35.673Z,929.81
2016-11-01T04:27:49.272Z,929.86
2016-11-01T04:29:02.910Z,929.84
2016-11-01T04:30:16.034Z,929.87
2016-11-01T04:31:29.669Z,929.86
2016-11-01T04:32:43.308Z,929.8
2016-11-01T04:33:56.983Z,929.73
2016-11-01T04:35:10.059Z,929.73
2016-11-01T04:36:23.722Z,929.72
2016-11-01T04:37:37.362Z,929.75
2016-11-01T04:38:51.072Z,929.75
2016-11-01T04:40:04.782Z,929.79
2016-11-01T04:41:18.509Z,929.75
2016-11-01T04:42:32.100Z,929.8
2016-11-01T04:43:45.715Z,929.81
2016-11-01T04:44:59.415Z,929.79
2016-11-01T04:46:12.782Z,929.8
2016-11-01T04:47:26.373Z,929.79
2016-11-01T04:48:39.988Z,929.79
2016-11-01T04:49:53.586Z,929.72
2016-11-01T04:51:07.163Z,929.74
2016-11-01T04:52:20.738Z,929.73
2016-11-01T04:53:34.386Z,929.71
2016-11-01T04:54:47.160Z,929.72
2016-11-01T04:56:00.755Z,929.72
2016-11-01T04:57:14.340Z,929.66
2016-11-01T04:58:27.954Z,929.69
2016-11-01T04:59:41.285Z,929.73
2016-11-01T05:00:54.383Z,929.62
2016-11-01T05:02:08.035Z,929.74
2016-11-01T05:03:21.699Z,929.72
2016-11-01T05:04:35.384Z,929.73
2016-11-01T05:05:48.993Z,929.73
2016-11-01T05:07:02.680Z,929.72
2016-11-01T05:08:16.036Z,929.66
2016-11-01T05:09:29.736Z,929.69
2016-11-01T05:10:43.373Z,929.68
2016-11-01T05:11:57.013Z,929.63
2016-11-01T05:13:10.643Z,929.65
2016-11-01T05:14:24.326Z,929.63
2016-11-01T05:15:38.024Z,929.62
2016-11-01T05:16:51.173Z,929.65
2016-11-01T05:18:04.876Z,929.65
2016-11-01T05:19:18.539Z,929.58
2016-11-01T05:20:32.152Z,929.63
2016-11-01T05:21:45.799Z,929.65
2016-11-01T05:22:58.934Z,929.6
2016-11-01T05:24:12.230Z,929.59
2016-11-01T05:25:25.926Z,929.57
2016-11-01T05:26:39.619Z,929.56
2016-11-01T05:27:52.644Z,929.54
2016-11-01T05:29:06.327Z,929.54
2016-11-01T05:30:19.956Z,929.54
2016-11-01T05:31:33.081Z,929.59
2016-11-01T05:32:46.189Z,929.59
2016-11-01T05:33:59.802Z,929.6
2016-11-01T05:35:13.377Z,929.56
2016-11-01T05:36:26.467Z,929.59
2016-11-01T05:37:40.084Z,929.6
2016-11-01T05:38:53.689Z,929.59
2016-11-01T05:40:06.776Z,929.6
2016-11-01T05:41:20.420Z,929.53
2016-11-01T05:42:34.079Z,929.52
2016-11-01T05:43:47.688Z,929.55
2016-11-01T05:45:01.362Z,929.54
2016-11-01T05:46:15.229Z,929.52
2016-11-01T05:47:28.267Z,929.55
2016-11-01T05:48:42.157Z,929.54
2016-11-01T05:49:55.773Z,929.56
2016-11-01T05:51:08.127Z,929.55
2016-11-01T05:52:21.809Z,929.53
2016-11-01T05:53:35.407Z,929.55
2016-11-01T05:54:49.037Z,929.51
2016-11-01T05:56:02.696Z,929.52
2016-11-01T05:57:15.497Z,929.55
2016-11-01T05:58:28.615Z,929.58
2016-11-01T05:59:42.285Z,929.58
2016-11-01T06:00:55.926Z,929.57
2016-11-01T06:02:08.023Z,929.55
2016-11-01T06:03:21.693Z,929.49
2016-11-01T06:04:34.872Z,929.5
2016-11-01T06:05:47.467Z,929.52
2016-11-01T06:07:00.843Z,929.56
2016-11-01T06:08:13.944Z,929.53
2016-11-01T06:09:27.616Z,929.55
2016-11-01T06:10:41.274Z,929.54
2016-11-01T06:11:54.923Z,929.5
2016-11-01T06:13:08.481Z,929.45
2016-11-01T06:14:22.121Z,929.45
2016-11-01T06:15:35.793Z,929.52
2016-11-01T06:16:49.373Z,929.56
2016-11-01T06:18:02.480Z,929.53
2016-11-01T06:19:15.510Z,929.56
2016-11-01T06:20:29.196Z,929.57
2016-11-01T06:21:42.346Z,929.61
2016-11-01T06:22:56.014Z,929.58
2016-11-01T06:24:09.573Z,929.57
2016-11-01T06:25:23.234Z,929.63
2016-11-01T06:26:36.854Z,929.66
2016-11-01T06:27:50.474Z,929.67
2016-11-01T06:29:03.556Z,929.67
2016-11-01T06:30:17.164Z,929.67
2016-11-01T06:31:30.738Z,929.66
2016-11-01T06:32:44.279Z,929.65
2016-11-01T06:33:57.867Z,929.66
2016-11-01T06:35:11.464Z,929.66
2016-11-01T06:36:25.145Z,929.69
2016-11-01T06:37:38.224Z,929.68
2016-11-01T06:38:51.499Z,929.74
2016-11-01T06:40:05.158Z,929.73
2016-11-01T06:41:18.843Z,929.71
2016-11-01T06:42:32.504Z,929.74
2016-11-01T06:43:45.348Z,929.73
2016-11-01T06:44:58.993Z,929.72
2016-11-01T06:46:12.694Z,929.79
2016-11-01T06:47:25.788Z,929.77
2016-11-01T06:48:39.428Z,929.79
2016-11-01T06:49:51.441Z,929.76
2016-11-01T06:51:05.103Z,929.78
2016-11-01T06:52:18.725Z,929.75
2016-11-01T06:53:32.377Z,929.76
2016-11-01T06:54:46.041Z,929.73
2016-11-01T06:55:59.626Z,929.72
2016-11-01T06:57:12.668Z,929.7
2016-11-01T06:58:26.379Z,929.66
2016-11-01T06:59:39.454Z,929.68
2016-11-01T07:00:52.568Z,929.73
2016-11-01T07:02:06.109Z,929.7
2016-11-01T07:03:19.176Z,929.69
2016-11-01T07:04:32.802Z,929.72
2016-11-01T07:05:45.813Z,929.75
2016-11-01T07:06:59.520Z,929.73
2016-11-01T07:08:13.097Z,929.7
2016-11-01T07:09:26.744Z,929.71
2016-11-01T07:10:40.364Z,929.73
2016-11-01T07:11:53.988Z,929.72
2016-11-01T07:13:07.074Z,929.71
2016-11-01T07:14:20.657Z,929.72
2016-11-01T07:15:34.041Z,929.7
2016-11-01T07:16:47.599Z,929.69
2016-11-01T07:18:01.205Z,929.69
2016-11-01T07:19:14.282Z,929.72
2016-11-01T07:20:27.392Z,929.74
2016-11-01T07:21:41.057Z,929.74
2016-11-01T07:22:54.132Z,929.79
2016-11-01T07:24:07.989Z,929.76
2016-11-01T07:25:21.630Z,929.77
2016-11-01T07:26:34.716Z,929.81
2016-11-01T07:27:48.515Z,929.83
2016-11-01T07:29:02.086Z,929.84
2016-11-01T07:30:15.641Z,929.84
2016-11-01T07:31:29.264Z,929.92
2016-11-01T07:32:42.904Z,929.95
2016-11-01T07:33:56.550Z,930.06
2016-11-01T07:35:09.190Z,930.19
2016-11-01T07:36:22.788Z,930.32
2016-11-01T07:37:36.368Z,930.48
2016-11-01T07:38:50.028Z,930.48
2016-11-01T07:40:03.101Z,930.44
2016-11-01T07:41:16.747Z,930.42
2016-11-01T07:42:30.365Z,930.44
2016-11-01T07:43:44.033Z,930.43
2016-11-01T07:44:57.648Z,930.48
2016-11-01T07:46:11.145Z,930.51
2016-11-01T07:47:24.468Z,930.53
2016-11-01T07:48:38.063Z,930.53
2016-11-01T07:49:51.710Z,930.54
2016-11-01T07:51:05.291Z,930.58
2016-11-01T07:52:18.866Z,930.56
2016-11-01T07:53:32.526Z,930.51
2016-11-01T07:54:45.055Z,930.51
2016-11-01T07:55:58.739Z,930.5
2016-11-01T07:57:11.824Z,930.5
2016-11-01T07:58:24.940Z,930.5
2016-11-01T07:59:38.122Z,930.47
2016-11-01T08:00:51.749Z,930.51
2016-11-01T08:02:05.345Z,930.54
2016-11-01T08:03:18.960Z,930.55
2016-11-01T08:04:32.555Z,930.56
2016-11-01T08:05:45.679Z,930.6
2016-11-01T08:06:59.309Z,930.63
2016-11-01T08:08:12.962Z,930.66
2016-11-01T08:09:26.058Z,930.61
2016-11-01T08:10:39.274Z,930.64
2016-11-01T08:11:52.654Z,930.66
2016-11-01T08:13:06.367Z,930.65
2016-11-01T08:14:20.002Z,930.64
2016-11-01T08:15:33.683Z,930.69
2016-11-01T08:16:47.259Z,930.73
2016-11-01T08:18:00.873Z,930.7
2016-11-01T08:19:14.550Z,930.76
2016-11-01T08:20:28.178Z,930.8
2016-11-01T08:21:42.361Z,930.81
2016-11-01T08:22:55.998Z,930.82
2016-11-01T08:24:09.284Z,930.84
2016-11-01T08:25:22.917Z,930.81
2016-11-01T08:26:36.497Z,930.85
2016-11-01T08:27:49.869Z,930.89
2016-11-01T08:29:02.657Z,930.88
2016-11-01T08:30:16.320Z,930.92
2016-11-01T08:31:29.956Z,930.93
2016-11-01T08:32:43.524Z,930.96
2016-11-01T08:33:56.648Z,930.97
2016-11-01T08:35:10.259Z,930.99
2016-11-01T08:36:23.890Z,930.98
2016-11-01T08:37:37.477Z,930.99
2016-11-01T08:38:51.096Z,931
2016-11-01T08:40:04.149Z,930.97
2016-11-01T08:41:17.271Z,930.99
2016-11-01T08:42:30.926Z,930.99
2016-11-01T08:43:44.572Z,931.02
2016-11-01T08:44:58.179Z,931.04
2016-11-01T08:46:11.776Z,931.04
2016-11-01T08:47:24.309Z,931.06
2016-11-01T08:48:38.126Z,931.1
2016-11-01T08:49:51.175Z,931.16
2016-11-01T08:51:04.212Z,931.13
2016-11-01T08:52:17.870Z,931.15
2016-11-01T08:53:30.987Z,931.15
2016-11-01T08:54:44.115Z,931.2
2016-11-01T08:55:57.813Z,931.18
2016-11-01T08:57:11.455Z,931.16
2016-11-01T08:58:25.015Z,931.22
2016-11-01T08:59:38.616Z,931.19
2016-11-01T09:00:52.252Z,931.18
2016-11-01T09:02:04.857Z,931.23
2016-11-01T09:03:18.608Z,931.19
2016-11-01T09:04:32.186Z,931.21
2016-11-01T09:05:45.493Z,931.25
2016-11-01T09:06:59.208Z,931.23
2016-11-01T09:08:12.890Z,931.18
2016-11-01T09:09:26.510Z,931.15
2016-11-01T09:10:40.167Z,931.08
2016-11-01T09:11:53.767Z,931.06
2016-11-01T09:13:07.476Z,931.06
2016-11-01T09:14:21.121Z,931.05
2016-11-01T09:15:34.785Z,931.05
2016-11-01T09:16:48.661Z,931.08
2016-11-01T09:18:01.797Z,931.12
2016-11-01T09:19:14.619Z,931.18
2016-11-01T09:20:27.921Z,931.18
2016-11-01T09:21:41.591Z,931.2
2016-11-01T09:22:55.291Z,931.17
2016-11-01T09:24:08.912Z,931.12
2016-11-01T09:25:22.041Z,931.15
2016-11-01T09:26:35.717Z,931.14
2016-11-01T09:27:48.823Z,931.14
2016-11-01T09:29:02.418Z,931.21
2016-11-01T09:30:15.531Z,931.23
2016-11-01T09:31:28.619Z,931.24
2016-11-01T09:32:41.730Z,931.27
2016-11-01T09:33:54.877Z,931.29
2016-11-01T09:35:08.505Z,931.28
2016-11-01T09:36:22.186Z,931.26
2016-11-01T09:37:35.802Z,931.22
2016-11-01T09:38:48.869Z,931.15
2016-11-01T09:40:02.491Z,931.1
2016-11-01T09:41:16.200Z,931.12
2016-11-01T09:42:29.255Z,931.14
2016-11-01T09:43:42.864Z,931.15
2016-11-01T09:44:56.470Z,931.19
2016-11-01T09:46:09.549Z,931.17
2016-11-01T09:47:22.641Z,931.17
2016-11-01T09:48:35.239Z,931.13
2016-11-01T09:49:48.391Z,931.15
2016-11-01T09:51:02.046Z,931.16
2016-11-01T09:52:15.696Z,931.18
2016-11-01T09:53:28.842Z,931.21
2016-11-01T09:54:42.514Z,931.23
2016-11-01T09:55:56.163Z,931.2
2016-11-01T09:57:09.265Z,931.25
2016-11-01T09:58:23.011Z,931.22
2016-11-01T09:59:35.647Z,931.21
2016-11-01T10:00:49.349Z,931.22
2016-11-01T10:02:03.013Z,931.18
2016-11-01T10:03:16.781Z,931.23
2016-11-01T10:04:29.844Z,931.23
2016-11-01T10:05:43.465Z,931.24
2016-11-01T10:06:56.531Z,931.26
2016-11-01T10:08:10.182Z,931.28
2016-11-01T10:09:23.947Z,931.35
2016-11-01T10:10:37.590Z,931.35
2016-11-01T10:11:51.174Z,931.36
2016-11-01T10:13:04.796Z,931.38
2016-11-01T10:14:18.724Z,931.43
2016-11-01T10:15:32.429Z,931.46
2016-11-01T10:16:46.099Z,931.46
2016-11-01T10:17:58.971Z,931.5
2016-11-01T10:19:12.561Z,931.49
2016-11-01T10:20:26.208Z,931.45
2016-11-01T10:21:39.890Z,931.4
2016-11-01T10:22:53.539Z,931.35
2016-11-01T10:24:07.118Z,931.34
2016-11-01T10:25:20.803Z,931.35
2016-11-01T10:26:34.385Z,931.34
2016-11-01T10:27:47.498Z,931.34
2016-11-01T10:29:01.123Z,931.36
2016-11-01T10:30:14.207Z,931.36
2016-11-01T10:31:27.850Z,931.34
2016-11-01T10:32:41.499Z,931.38
2016-11-01T10:33:54.548Z,931.32
2016-11-01T10:35:06.532Z,931.29
2016-11-01T10:36:20.124Z,931.33
2016-11-01T10:37:33.744Z,931.32
2016-11-01T10:38:47.412Z,931.32
2016-11-01T10:40:01.333Z,931.3
2016-11-01T10:41:14.984Z,931.34
2016-11-01T10:42:28.585Z,931.29
2016-11-01T10:43:41.713Z,931.28
2016-11-01T10:44:55.094Z,931.29
2016-11-01T10:46:08.799Z,931.4
2016-11-01T10:47:22.474Z,931.44
2016-11-01T10:48:36.193Z,931.47
2016-11-01T10:49:49.871Z,931.47
2016-11-01T10:51:03.022Z,931.54
2016-11-01T10:52:16.070Z,931.51
2016-11-01T10:53:29.144Z,931.52
2016-11-01T10:54:42.389Z,931.47
2016-11-01T10:55:56.036Z,931.52
2016-11-01T10:57:09.308Z,931.47
2016-11-01T10:58:22.323Z,931.52
2016-11-01T10:59:35.978Z,931.58
2016-11-01T11:00:49.559Z,931.57
2016-11-01T11:02:02.717Z,931.55
2016-11-01T11:03:16.334Z,931.57
2016-11-01T11:04:30.070Z,931.55
2016-11-01T11:05:43.721Z,931.51
2016-11-01T11:06:57.314Z,931.53
2016-11-01T11:08:11.250Z,931.52
2016-11-01T11:09:24.318Z,931.53
2016-11-01T11:10:38.131Z,931.54
2016-11-01T11:11:51.835Z,931.52
2016-11-01T11:13:05.473Z,931.51
2016-11-01T11:14:19.170Z,931.52
2016-11-01T11:15:32.832Z,931.53
2016-11-01T11:16:46.407Z,931.58
2016-11-01T11:17:59.505Z,931.56
2016-11-01T11:19:13.118Z,931.64
2016-11-01T11:20:26.735Z,931.61
2016-11-01T11:21:40.417Z,931.61
2016-11-01T11:22:54.069Z,931.55
2016-11-01T11:24:07.756Z,931.55
2016-11-01T11:25:21.411Z,931.59
2016-11-01T11:26:35.042Z,931.64
2016-11-01T11:27:48.148Z,931.62
2016-11-01T11:29:01.791Z,931.61
2016-11-01T11:30:15.549Z,931.62
2016-11-01T11:31:29.268Z,931.61
2016-11-01T11:32:42.937Z,931.53
2016-11-01T11:33:56.562Z,931.53
2016-11-01T11:35:09.615Z,931.56
2016-11-01T11:36:22.689Z,931.59
2016-11-01T11:37:36.339Z,931.61
2016-11-01T11:38:49.912Z,931.66
2016-11-01T11:40:03.499Z,931.67
2016-11-01T11:41:17.151Z,931.68
2016-11-01T11:42:30.868Z,931.66
2016-11-01T11:43:44.432Z,931.68
2016-11-01T11:44:58.079Z,931.67
2016-11-01T11:46:11.269Z,931.65
2016-11-01T11:47:24.288Z,931.67
2016-11-01T11:48:38.141Z,931.7
2016-11-01T11:49:51.787Z,931.7
2016-11-01T11:51:05.457Z,931.64
2016-11-01T11:52:19.099Z,931.71
2016-11-01T11:53:32.659Z,931.72
2016-11-01T11:54:45.975Z,931.68
2016-11-01T11:55:59.639Z,931.71
2016-11-01T11:57:13.303Z,931.69
2016-11-01T11:58:26.937Z,931.66
2016-11-01T11:59:40.563Z,931.68
2016-11-01T12:00:54.190Z,931.7
2016-11-01T12:02:07.844Z,931.67
2016-11-01T12:03:21.791Z,931.65
2016-11-01T12:04:34.950Z,931.64
2016-11-01T12:05:48.684Z,931.71
2016-11-01T12:07:01.797Z,931.75
2016-11-01T12:08:15.563Z,931.79
2016-11-01T12:09:28.719Z,931.77
2016-11-01T12:10:41.904Z,931.74
2016-11-01T12:11:55.033Z,931.74
2016-11-01T12:13:08.743Z,931.74
2016-11-01T12:14:21.819Z,931.73
2016-11-01T12:15:34.378Z,931.71
2016-11-01T12:16:47.198Z,931.71
2016-11-01T12:18:00.325Z,931.69
2016-11-01T12:19:14.023Z,931.61
2016-11-01T12:20:26.576Z,931.63
2016-11-01T12:21:40.253Z,931.67
2016-11-01T12:22:53.887Z,931.6
2016-11-01T12:24:07.464Z,931.53
2016-11-01T12:25:21.116Z,931.48
2016-11-01T12:26:34.271Z,931.48
2016-11-01T12:27:47.376Z,931.51
2016-11-01T12:29:00.582Z,931.5
2016-11-01T12:30:14.288Z,931.45
2016-11-01T12:31:27.908Z,931.48
2016-11-01T12:32:41.577Z,931.45
2016-11-01T12:33:55.236Z,931.49
2016-11-01T12:35:08.913Z,931.49
2016-11-01T12:36:22.577Z,931.49
2016-11-01T12:37:36.205Z,931.45
2016-11-01T12:38:49.618Z,931.39
2016-11-01T12:40:03.244Z,931.43
2016-11-01T12:41:16.835Z,931.47
2016-11-01T12:42:30.175Z,931.43
2016-11-01T12:43:43.283Z,931.43
2016-11-01T12:44:56.960Z,931.39
2016-11-01T12:46:10.126Z,931.43
2016-11-01T12:47:23.785Z,931.4
2016-11-01T12:48:36.893Z,931.42
2016-11-01T12:49:50.274Z,931.4
2016-11-01T12:51:03.954Z,931.41
2016-11-01T12:52:17.055Z,931.36
2016-11-01T12:53:30.181Z,931.43
2016-11-01T12:54:43.243Z,931.38
2016-11-01T12:55:56.350Z,931.35
2016-11-01T12:57:10.006Z,931.34
2016-11-01T12:58:23.114Z,931.33
2016-11-01T12:59:36.213Z,931.32
2016-11-01T13:00:49.857Z,931.27
2016-11-01T13:02:03.455Z,931.23
2016-11-01T13:03:16.563Z,931.21
2016-11-01T13:04:30.221Z,931.23
2016-11-01T13:05:43.897Z,931.21
2016-11-01T13:06:56.989Z,931.2
2016-11-01T13:08:10.136Z,931.21
2016-11-01T13:09:23.231Z,931.29
2016-11-01T13:10:36.367Z,931.22
2016-11-01T13:11:50.040Z,931.3
2016-11-01T13:13:03.705Z,931.29
2016-11-01T13:14:16.370Z,931.28
2016-11-01T13:15:30.037Z,931.23
2016-11-01T13:16:43.166Z,931.2
2016-11-01T13:17:56.835Z,931.17
2016-11-01T13:19:10.438Z,931.19
2016-11-01T13:20:24.149Z,931.13
2016-11-01T13:21:37.327Z,931.13
2016-11-01T13:22:50.965Z,931.14
2016-11-01T13:24:03.530Z,931.12
2016-11-01T13:25:17.091Z,931.04
2016-11-01T13:26:30.841Z,931.03
2016-11-01T13:27:44.456Z,931.07
2016-11-01T13:28:58.148Z,931.08
2016-11-01T13:30:11.773Z,931.1
2016-11-01T13:31:25.373Z,931.04
2016-11-01T13:32:38.950Z,931.02
2016-11-01T13:33:51.780Z,931.03
2016-11-01T13:35:04.330Z,931.02
2016-11-01T13:36:17.996Z,931
2016-11-01T13:37:31.695Z,931.03
2016-11-01T13:38:44.854Z,930.93
2016-11-01T13:39:58.512Z,930.98
2016-11-01T13:41:11.318Z,930.91
2016-11-01T13:42:24.491Z,930.94
2016-11-01T13:43:38.230Z,930.88
2016-11-01T13:44:51.908Z,930.89
2016-11-01T13:46:05.572Z,930.87
2016-11-01T13:47:18.908Z,930.82
2016-11-01T13:48:32.569Z,930.8
2016-11-01T13:49:46.187Z,930.81
2016-11-01T13:50:59.860Z,930.85
2016-11-01T13:52:13.556Z,930.78
2016-11-01T13:53:27.125Z,930.77
2016-11-01T13:54:39.726Z,930.76
2016-11-01T13:55:53.343Z,930.78
2016-11-01T13:57:06.527Z,930.7
2016-11-01T13:58:19.606Z,930.72
2016-11-01T13:59:33.267Z,930.66
2016-11-01T14:00:46.393Z,930.65
2016-11-01T14:01:59.482Z,930.63
2016-11-01T14:04:51.464Z,930.66
2016-11-01T14:06:05.069Z,930.56
2016-11-01T14:07:19.029Z,930.54
2016-11-01T14:08:32.670Z,930.72
2016-11-01T14:09:46.298Z,930.53
2016-11-01T14:10:59.937Z,930.58
2016-11-01T14:12:13.563Z,930.52
2016-11-01T14:13:27.092Z,930.56
2016-11-01T14:14:40.756Z,930.62
2016-11-01T14:15:54.062Z,930.63
2016-11-01T14:17:07.660Z,930.49
2016-11-01T14:18:20.245Z,930.57
2016-11-01T14:19:33.556Z,930.5
2016-11-01T14:20:46.605Z,930.57
2016-11-01T14:22:00.191Z,930.5
2016-11-01T14:23:13.857Z,930.46
2016-11-01T14:24:26.905Z,930.59
2016-11-01T14:25:40.432Z,930.59
2016-11-01T14:26:53.996Z,930.7
2016-11-01T14:28:07.559Z,930.49
2016-11-01T14:29:21.208Z,930.66
2016-11-01T14:30:34.296Z,930.72
2016-11-01T14:31:47.340Z,930.56
2016-11-01T14:32:59.918Z,930.56
2016-11-01T14:34:13.031Z,930.42
2016-11-01T14:35:26.597Z,930.47
2016-11-01T14:36:40.194Z,930.43
2016-11-01T14:37:53.752Z,930.56
2016-11-01T14:39:07.335Z,930.48
2016-11-01T14:40:19.936Z,930.45
2016-11-01T14:41:33.486Z,930.45
2016-11-01T14:42:46.520Z,930.38
2016-11-01T14:43:59.588Z,930.4
2016-11-01T14:45:13.162Z,930.3
2016-11-01T14:46:25.708Z,930.45
2016-11-01T14:47:39.248Z,930.37
2016-11-01T14:48:51.748Z,930.37
2016-11-01T14:50:04.275Z,930.31
2016-11-01T14:51:17.340Z,930.24
2016-11-01T14:52:30.386Z,930.23
2016-11-01T14:53:44.003Z,930.13
2016-11-01T14:54:57.608Z,930.26
2016-11-01T14:56:10.739Z,930.13
2016-11-01T14:57:24.293Z,930.18
2016-11-01T14:58:37.909Z,930.19
2016-11-01T14:59:51.502Z,930.13
2016-11-01T15:01:05.124Z,930.2
2016-11-01T15:02:18.849Z,930.18
2016-11-01T15:03:32.418Z,930.21
2016-11-01T15:04:45.646Z,930.24
2016-11-01T15:05:59.247Z,930.12
2016-11-01T15:07:12.321Z,930.17
2016-11-01T15:08:25.894Z,930.05
2016-11-01T15:09:39.517Z,930.07
2016-11-01T15:10:52.036Z,929.97
2016-11-01T15:12:05.172Z,930.02
2016-11-01T15:13:18.283Z,929.94
2016-11-01T15:14:31.380Z,929.84
2016-11-01T15:15:44.969Z,929.86
2016-11-01T15:16:58.539Z,929.98
2016-11-01T15:18:12.112Z,929.98
2016-11-01T15:19:25.787Z,929.91
2016-11-01T15:20:39.357Z,929.86